Time;durP1;ratioP1;P1;durP2;ratioP2;P2;SDS_P1;SDS_P2;PMS_P1;PMS_P2;Temp;Humidity;BMP_temperature;BMP_pressure;BME280_temperature;BME280_humidity;BME280_pressure;Samples;Min_cycle;Max_cycle;Signal;HPM_P1;HPM_P2
2024/03/29 00:00:02;;;;;;;4.38;1.13;;;9.40;99.90;;;;;;5042085;28;20499;-62
2024/03/29 00:02:28;;;;;;;3.50;0.80;;;9.30;99.90;;;;;;5027627;28;20045;-62
2024/03/29 00:04:54;;;;;;;3.42;1.17;;;9.40;99.90;;;;;;5041586;28;20041;-61
2024/03/29 00:07:20;;;;;;;5.00;1.30;;;9.30;99.90;;;;;;5046686;28;20044;-61
2024/03/29 00:09:45;;;;;;;3.92;1.25;;;9.30;99.90;;;;;;5048710;28;20045;-62
2024/03/29 00:12:11;;;;;;;6.43;0.93;;;9.30;99.90;;;;;;5039156;28;20082;-61
2024/03/29 00:14:37;;;;;;;2.92;0.90;;;9.20;99.90;;;;;;5043293;28;20041;-61
2024/03/29 00:17:04;;;;;;;4.50;1.05;;;9.20;99.90;;;;;;5041330;28;20529;-61
2024/03/29 00:19:30;;;;;;;8.32;1.08;;;9.20;99.90;;;;;;5039759;28;20514;-61
2024/03/29 00:21:55;;;;;;;6.03;1.05;;;9.10;99.90;;;;;;5043737;28;20045;-62
2024/03/29 00:24:21;;;;;;;6.15;1.10;;;9.20;99.90;;;;;;5037918;28;20348;-62
2024/03/29 00:26:47;;;;;;;5.80;1.23;;;9.20;99.90;;;;;;5046723;28;20052;-61
2024/03/29 00:29:12;;;;;;;2.35;0.80;;;9.10;99.90;;;;;;5042553;28;20095;-61
2024/03/29 00:31:38;;;;;;;4.70;1.17;;;9.10;99.90;;;;;;5038029;28;20033;-62
2024/03/29 00:34:04;;;;;;;2.35;0.90;;;9.10;99.90;;;;;;5039201;28;20470;-62
2024/03/29 00:36:30;;;;;;;5.53;1.00;;;9.00;99.90;;;;;;5034693;28;20051;-62
2024/03/29 00:38:55;;;;;;;5.03;1.20;;;9.00;99.90;;;;;;5039266;28;20083;-61
2024/03/29 00:41:21;;;;;;;5.40;0.85;;;9.00;99.90;;;;;;5036096;28;20040;-61
2024/03/29 00:43:48;;;;;;;5.65;1.38;;;9.00;99.90;;;;;;5040266;28;20037;-61
2024/03/29 00:46:14;;;;;;;4.22;1.02;;;9.00;99.90;;;;;;5039848;28;20121;-61
2024/03/29 00:48:40;;;;;;;3.28;1.20;;;9.00;99.90;;;;;;5043465;28;20114;-61
2024/03/29 00:51:06;;;;;;;2.83;0.98;;;9.00;99.90;;;;;;5043646;28;20033;-61
2024/03/29 00:53:32;;;;;;;3.53;0.68;;;8.90;99.90;;;;;;5045793;28;20044;-60
2024/03/29 00:55:57;;;;;;;6.30;1.05;;;8.90;99.90;;;;;;5045415;28;20594;-61
2024/03/29 00:58:23;;;;;;;3.10;1.02;;;8.90;99.90;;;;;;5047022;28;20068;-60
2024/03/29 01:00:49;;;;;;;5.32;0.80;;;8.90;99.90;;;;;;5041291;28;20033;-60
2024/03/29 01:03:14;;;;;;;3.90;1.20;;;9.00;99.90;;;;;;5038834;28;20048;-61
2024/03/29 01:05:40;;;;;;;4.32;0.90;;;8.90;99.90;;;;;;5035250;28;20508;-62
2024/03/29 01:08:06;;;;;;;2.72;0.88;;;8.90;99.90;;;;;;5031484;28;20043;-61
2024/03/29 01:10:32;;;;;;;6.15;1.23;;;8.90;99.90;;;;;;5032677;28;20116;-61
2024/03/29 01:12:57;;;;;;;4.78;1.00;;;8.90;99.90;;;;;;5032166;28;20037;-61
2024/03/29 01:15:23;;;;;;;1.77;0.88;;;8.90;99.90;;;;;;5055099;28;20029;-61
2024/03/29 01:17:49;;;;;;;9.05;1.10;;;8.80;99.90;;;;;;5045325;28;20080;-62
2024/03/29 01:20:15;;;;;;;4.65;1.55;;;8.80;99.90;;;;;;5045322;28;20095;-62
2024/03/29 01:22:40;;;;;;;6.88;1.45;;;8.80;99.90;;;;;;5053847;28;20032;-62
2024/03/29 01:25:08;;;;;;;5.03;1.00;;;8.80;99.90;;;;;;5040868;28;20381;-63
2024/03/29 01:27:34;;;;;;;2.35;0.77;;;8.80;99.90;;;;;;5039049;28;20041;-62
2024/03/29 01:30:00;;;;;;;4.50;1.15;;;8.90;99.90;;;;;;5043795;28;20429;-63
2024/03/29 01:32:25;;;;;;;5.13;0.93;;;8.80;99.90;;;;;;5044034;28;20523;-62
2024/03/29 01:34:51;;;;;;;10.65;1.42;;;8.80;99.90;;;;;;5050200;28;20114;-62
2024/03/29 01:37:17;;;;;;;4.80;1.10;;;8.90;99.90;;;;;;5036647;28;20484;-60
2024/03/29 01:39:42;;;;;;;9.10;1.35;;;8.80;99.90;;;;;;5038093;28;20044;-61
2024/03/29 01:42:08;;;;;;;3.40;0.70;;;8.80;99.90;;;;;;5046127;28;20079;-62
2024/03/29 01:44:35;;;;;;;8.13;1.35;;;8.80;99.90;;;;;;5044207;28;20702;-62
2024/03/29 01:47:01;;;;;;;4.47;1.20;;;8.80;99.90;;;;;;5048917;28;20033;-62
2024/03/29 01:49:27;;;;;;;6.63;1.05;;;8.80;99.90;;;;;;5038488;28;20397;-63
2024/03/29 01:51:52;;;;;;;5.32;0.93;;;8.80;99.90;;;;;;5036989;28;20408;-62
2024/03/29 01:54:18;;;;;;;5.35;1.33;;;8.80;99.90;;;;;;5050271;28;20048;-62
2024/03/29 01:56:44;;;;;;;6.65;1.92;;;8.80;99.90;;;;;;5042615;28;20040;-62
2024/03/29 01:59:15;;;;;;;5.32;1.38;;;8.80;99.90;;;;;;5047350;28;20127;-62
2024/03/29 02:01:42;;;;;;;4.78;1.00;;;8.80;99.90;;;;;;5045660;28;20041;-62
2024/03/29 02:04:09;;;;;;;3.90;1.10;;;8.80;99.90;;;;;;5043671;28;20056;-61
2024/03/29 02:06:37;;;;;;;3.30;1.05;;;8.80;99.90;;;;;;5045090;28;20113;-61
2024/03/29 02:09:03;;;;;;;6.80;1.20;;;8.90;99.90;;;;;;5041698;28;20080;-61
2024/03/29 02:11:29;;;;;;;5.47;1.42;;;8.90;99.90;;;;;;5043038;28;20056;-61
2024/03/29 02:13:56;;;;;;;7.47;1.10;;;8.90;99.90;;;;;;5044225;28;20453;-61
2024/03/29 02:16:23;;;;;;;5.53;1.93;;;9.00;99.90;;;;;;5040761;28;20057;-62
2024/03/29 02:18:49;;;;;;;10.02;1.83;;;9.00;99.90;;;;;;5038913;28;20538;-61
2024/03/29 02:21:15;;;;;;;2.88;0.70;;;9.00;99.90;;;;;;5038781;28;20607;-61
2024/03/29 02:23:45;;;;;;;4.78;1.00;;;8.90;99.90;;;;;;5041986;28;20037;-62
2024/03/29 02:26:11;;;;;;;2.17;0.95;;;8.90;99.90;;;;;;5034329;28;20391;-61
2024/03/29 02:28:37;;;;;;;6.07;1.35;;;8.90;99.90;;;;;;5039359;28;20598;-61
2024/03/29 02:31:03;;;;;;;5.13;1.00;;;8.90;99.90;;;;;;5044371;28;20037;-61
2024/03/29 02:33:29;;;;;;;6.20;1.17;;;8.90;99.90;;;;;;5038162;28;20119;-62
2024/03/29 02:35:55;;;;;;;7.32;1.20;;;8.80;99.90;;;;;;5038506;28;20524;-61
2024/03/29 02:38:21;;;;;;;7.45;1.20;;;8.90;99.90;;;;;;5042498;28;20075;-62
2024/03/29 02:40:47;;;;;;;5.40;0.98;;;8.80;99.90;;;;;;5042161;28;20037;-61
2024/03/29 02:43:12;;;;;;;4.10;1.05;;;8.80;99.90;;;;;;5042283;28;20045;-61
2024/03/29 02:45:39;;;;;;;2.35;0.82;;;8.90;99.90;;;;;;5040459;28;20122;-61
2024/03/29 02:48:04;;;;;;;6.18;1.73;;;8.80;99.90;;;;;;5042432;28;20503;-62
2024/03/29 02:50:30;;;;;;;4.55;0.93;;;8.80;99.90;;;;;;5042488;28;20083;-61
2024/03/29 02:52:56;;;;;;;8.63;1.45;;;8.80;99.90;;;;;;5042907;28;20402;-61
2024/03/29 02:55:22;;;;;;;7.00;1.10;;;8.80;99.90;;;;;;5040120;28;20045;-61
2024/03/29 02:57:47;;;;;;;7.78;1.02;;;8.80;99.90;;;;;;5040300;28;20131;-61
2024/03/29 03:00:13;;;;;;;5.50;0.98;;;8.80;99.90;;;;;;5041911;28;20037;-61
2024/03/29 03:02:40;;;;;;;3.25;1.08;;;8.80;99.90;;;;;;5045087;28;20044;-61
2024/03/29 03:05:07;;;;;;;6.13;1.48;;;8.80;99.90;;;;;;5042472;28;20437;-60
2024/03/29 03:13:03;;;;;;;4.68;1.13;;;8.70;99.90;;;;;;5042877;28;20048;-62
2024/03/29 03:15:29;;;;;;;5.72;1.23;;;8.90;99.90;;;;;;5041283;28;20128;-62
2024/03/29 03:17:55;;;;;;;4.03;1.42;;;8.60;99.90;;;;;;5039691;28;20043;-63
2024/03/29 03:20:22;;;;;;;3.90;0.75;;;8.60;99.90;;;;;;5036369;28;20037;-61
2024/03/29 03:22:50;;;;;;;4.30;1.02;;;8.60;99.90;;;;;;5038846;28;20468;-61
2024/03/29 03:25:16;;;;;;;11.15;1.42;;;8.60;99.90;;;;;;5045277;28;20347;-60
2024/03/29 03:27:42;;;;;;;5.28;1.05;;;8.60;99.90;;;;;;5040498;28;20142;-61
2024/03/29 03:30:08;;;;;;;5.10;0.98;;;8.60;99.90;;;;;;5041829;28;20284;-61
2024/03/29 03:32:34;;;;;;;6.80;0.98;;;8.60;99.90;;;;;;5041390;28;20351;-61
2024/03/29 03:34:59;;;;;;;4.30;0.88;;;8.60;99.90;;;;;;5040687;28;20214;-61
2024/03/29 03:37:25;;;;;;;4.18;0.90;;;8.50;99.90;;;;;;5036330;28;20044;-62
2024/03/29 03:39:51;;;;;;;5.10;1.00;;;8.60;99.90;;;;;;5040078;28;20041;-61
2024/03/29 03:42:16;;;;;;;5.32;1.23;;;8.60;99.90;;;;;;5041959;28;20151;-60
2024/03/29 03:44:42;;;;;;;5.05;0.95;;;8.60;99.90;;;;;;5041407;28;20270;-61
2024/03/29 03:47:08;;;;;;;5.43;1.20;;;8.70;99.90;;;;;;5043994;28;20617;-61
2024/03/29 03:49:34;;;;;;;5.13;1.20;;;8.60;99.90;;;;;;5041464;28;20033;-63
2024/03/29 03:51:59;;;;;;;5.15;1.73;;;8.60;99.90;;;;;;5042120;28;20037;-62
2024/03/29 03:54:25;;;;;;;8.30;1.30;;;8.60;99.90;;;;;;5037985;28;20041;-62
2024/03/29 03:56:51;;;;;;;2.85;0.85;;;8.60;99.90;;;;;;5041755;28;20815;-62
2024/03/29 03:59:17;;;;;;;2.97;0.68;;;8.60;99.90;;;;;;5041809;28;20503;-62
2024/03/29 04:01:42;;;;;;;4.97;1.10;;;8.60;99.90;;;;;;5038070;28;20082;-61
2024/03/29 04:04:09;;;;;;;7.22;0.90;;;8.60;99.90;;;;;;5036123;28;20401;-61
2024/03/29 04:06:35;;;;;;;4.65;1.00;;;8.60;99.90;;;;;;5041341;28;20464;-61
2024/03/29 04:09:00;;;;;;;4.45;0.82;;;8.60;99.90;;;;;;5035104;28;20048;-61
2024/03/29 04:11:27;;;;;;;4.65;0.93;;;8.60;99.90;;;;;;5040650;28;20037;-61
2024/03/29 04:13:52;;;;;;;4.50;1.10;;;8.70;99.90;;;;;;5039786;28;20101;-62
2024/03/29 04:16:18;;;;;;;4.50;0.95;;;8.70;99.90;;;;;;5036275;28;20314;-62
2024/03/29 04:18:44;;;;;;;5.63;1.15;;;8.70;99.90;;;;;;5039299;28;20052;-61
2024/03/29 04:21:10;;;;;;;5.45;1.27;;;8.70;99.90;;;;;;5039710;28;20036;-61
2024/03/29 04:23:37;;;;;;;3.97;0.82;;;8.70;99.90;;;;;;5039342;28;20041;-62
2024/03/29 04:26:02;;;;;;;4.68;1.08;;;8.70;99.90;;;;;;5040290;28;20113;-61
2024/03/29 04:28:28;;;;;;;4.88;1.15;;;8.70;99.90;;;;;;5038699;28;20680;-62
2024/03/29 04:30:55;;;;;;;2.90;0.95;;;8.70;99.90;;;;;;5036560;28;20037;-62
2024/03/29 04:33:21;;;;;;;2.90;0.90;;;8.70;99.90;;;;;;5038995;28;20123;-61
2024/03/29 04:36:01;;;;;;;3.97;1.00;;;8.70;99.90;;;;;;5040448;28;20182;-62
2024/03/29 04:38:27;;;;;;;4.00;0.95;;;8.70;99.90;;;;;;5043124;28;20628;-62
2024/03/29 04:40:55;;;;;;;5.07;1.00;;;8.70;99.90;;;;;;5039509;28;20033;-61
2024/03/29 04:43:28;;;;;;;2.88;1.52;;;8.70;99.90;;;;;;5034843;28;20051;-62
2024/03/29 04:46:11;;;;;;;6.32;0.60;;;8.70;99.90;;;;;;5039187;28;20145;-62
2024/03/29 04:48:38;;;;;;;5.38;0.90;;;8.70;99.90;;;;;;5035494;28;20021;-63
2024/03/29 04:51:04;;;;;;;5.13;0.90;;;8.80;99.90;;;;;;5032959;28;20599;-62
2024/03/29 04:53:30;;;;;;;10.77;1.08;;;8.70;99.90;;;;;;5045183;28;20112;-62
2024/03/29 04:55:57;;;;;;;4.53;0.80;;;8.70;99.90;;;;;;5046045;28;20058;-62
2024/03/29 04:58:24;;;;;;;2.85;1.00;;;8.80;99.90;;;;;;5042792;28;20048;-64
2024/03/29 05:00:52;;;;;;;4.53;0.95;;;8.80;99.90;;;;;;5044080;28;20055;-61
2024/03/29 05:03:18;;;;;;;2.72;0.85;;;8.80;99.90;;;;;;5042808;28;20055;-62
2024/03/29 05:05:49;;;;;;;4.18;1.13;;;8.80;99.90;;;;;;5033599;28;20503;-62
2024/03/29 05:08:15;;;;;;;2.75;0.95;;;8.80;99.90;;;;;;5044152;28;20419;-62
2024/03/29 05:10:41;;;;;;;5.68;1.40;;;8.80;99.90;;;;;;5041998;28;20044;-62
2024/03/29 05:13:07;;;;;;;4.72;1.10;;;8.80;99.90;;;;;;5045584;28;20047;-62
2024/03/29 05:15:33;;;;;;;5.18;0.70;;;8.80;99.90;;;;;;5047656;28;20675;-61
2024/03/29 05:17:59;;;;;;;5.75;1.25;;;8.80;99.90;;;;;;5052873;28;20369;-61
2024/03/29 05:20:25;;;;;;;3.95;0.77;;;8.90;99.90;;;;;;5054668;28;20433;-62
2024/03/29 05:22:51;;;;;;;3.80;1.30;;;8.90;99.90;;;;;;5038940;28;20566;-61
2024/03/29 05:25:16;;;;;;;2.47;0.88;;;8.90;99.90;;;;;;5043796;28;20045;-62
2024/03/29 05:27:42;;;;;;;3.03;0.90;;;8.90;99.90;;;;;;5043741;28;20416;-62
2024/03/29 05:30:11;;;;;;;3.58;1.00;;;8.90;99.90;;;;;;5043017;28;20572;-62
2024/03/29 05:32:37;;;;;;;7.18;1.42;;;9.00;99.90;;;;;;5044862;28;20427;-62
2024/03/29 05:35:03;;;;;;;4.18;1.05;;;9.00;99.90;;;;;;5045213;28;20037;-62
2024/03/29 05:37:28;;;;;;;2.03;0.80;;;9.00;99.90;;;;;;5042848;28;20126;-63
2024/03/29 05:40:00;;;;;;;6.05;1.05;;;9.00;99.90;;;;;;5075951;28;20412;-62
2024/03/29 05:42:27;;;;;;;1.63;0.65;;;9.00;99.90;;;;;;5041338;28;20044;-62
2024/03/29 05:44:53;;;;;;;2.53;0.93;;;9.00;99.90;;;;;;5038575;28;20052;-62
2024/03/29 05:47:19;;;;;;;2.00;0.90;;;9.10;99.90;;;;;;5044839;28;20037;-62
2024/03/29 05:49:45;;;;;;;7.97;1.65;;;9.10;99.90;;;;;;5049046;28;20060;-63
2024/03/29 05:52:13;;;;;;;3.83;1.00;;;9.10;99.90;;;;;;5041832;28;20033;-62
2024/03/29 05:54:40;;;;;;;10.18;1.73;;;9.10;99.90;;;;;;5043669;28;20547;-62
2024/03/29 05:57:06;;;;;;;5.97;1.10;;;9.10;99.90;;;;;;5039938;28;20037;-62
2024/03/29 05:59:32;;;;;;;3.70;0.90;;;9.10;99.90;;;;;;5039372;28;20099;-62
2024/03/29 06:01:58;;;;;;;5.03;0.90;;;9.20;99.90;;;;;;5038729;28;20076;-62
2024/03/29 06:04:32;;;;;;;2.75;0.90;;;9.20;99.90;;;;;;5041161;28;20037;-62
2024/03/29 06:07:00;;;;;;;3.92;1.00;;;9.20;99.90;;;;;;5040018;28;20584;-60
2024/03/29 06:09:26;;;;;;;4.22;1.02;;;9.20;99.90;;;;;;5039321;28;20107;-61
2024/03/29 06:11:57;;;;;;;7.60;1.10;;;9.20;99.90;;;;;;5037343;28;20539;-61
2024/03/29 06:17:22;;;;;;;4.13;0.85;;;9.30;99.90;;;;;;5037864;28;20053;-60
2024/03/29 06:19:54;;;;;;;4.28;0.85;;;9.30;99.90;;;;;;5039845;28;20389;-60
2024/03/29 06:22:19;;;;;;;2.50;0.90;;;9.40;99.90;;;;;;5037903;28;20052;-62
2024/03/29 06:24:46;;;;;;;1.55;0.65;;;9.40;99.90;;;;;;5037807;28;20051;-62
2024/03/29 06:27:16;;;;;;;2.80;0.90;;;9.40;99.90;;;;;;5067977;28;20137;-60
2024/03/29 06:29:41;;;;;;;3.13;0.85;;;9.40;99.90;;;;;;5037571;28;20143;-61
2024/03/29 06:32:07;;;;;;;4.47;0.73;;;9.40;99.90;;;;;;5038697;28;20035;-61
2024/03/29 06:34:33;;;;;;;3.47;0.70;;;9.50;99.90;;;;;;5038194;28;20044;-60
2024/03/29 06:36:59;;;;;;;2.17;0.93;;;9.50;99.90;;;;;;5037804;28;20406;-61
2024/03/29 06:39:25;;;;;;;3.28;1.25;;;9.50;99.90;;;;;;5036357;28;20043;-61
2024/03/29 06:41:52;;;;;;;4.20;0.80;;;9.50;99.90;;;;;;5036614;28;20056;-61
2024/03/29 06:44:17;;;;;;;1.55;0.57;;;9.50;99.90;;;;;;5039645;28;20041;-61
2024/03/29 06:46:43;;;;;;;3.45;1.02;;;9.50;99.90;;;;;;5037896;28;20041;-61
2024/03/29 06:49:09;;;;;;;2.35;0.80;;;9.60;99.90;;;;;;5037001;28;20041;-61
2024/03/29 06:51:35;;;;;;;2.50;0.75;;;9.60;99.90;;;;;;5041180;28;20100;-61
2024/03/29 06:54:00;;;;;;;5.13;0.60;;;9.70;99.90;;;;;;5039033;28;20032;-61
2024/03/29 06:56:26;;;;;;;1.35;0.52;;;9.70;99.90;;;;;;5037853;28;20044;-61
2024/03/29 06:58:52;;;;;;;3.67;0.60;;;9.70;99.90;;;;;;5038824;28;20044;-61
2024/03/29 07:01:17;;;;;;;3.22;1.27;;;9.80;99.90;;;;;;5038700;28;20119;-61
2024/03/29 07:03:44;;;;;;;1.33;0.45;;;9.80;99.90;;;;;;5039993;28;20606;-61
2024/03/29 07:06:10;;;;;;;1.88;0.70;;;9.80;99.90;;;;;;5036553;28;20127;-61
2024/03/29 07:08:36;;;;;;;1.90;0.55;;;9.90;99.90;;;;;;5038281;28;20157;-61
2024/03/29 07:11:02;;;;;;;1.92;0.60;;;9.90;99.90;;;;;;5038879;28;20094;-61
2024/03/29 07:13:31;;;;;;;2.08;0.82;;;10.00;99.90;;;;;;5039076;28;20478;-60
2024/03/29 07:15:58;;;;;;;3.40;0.68;;;10.00;99.90;;;;;;5037127;28;20561;-61
2024/03/29 07:18:24;;;;;;;1.30;0.40;;;10.00;99.90;;;;;;5039005;28;20088;-61
2024/03/29 07:20:50;;;;;;;2.92;0.60;;;10.10;99.90;;;;;;5036843;28;20078;-61
2024/03/29 07:23:16;;;;;;;2.60;0.60;;;10.30;99.90;;;;;;5038475;28;20037;-60
2024/03/29 07:25:45;;;;;;;1.38;0.47;;;10.30;99.90;;;;;;5037029;28;20036;-61
2024/03/29 07:28:14;;;;;;;1.27;0.45;;;10.30;99.90;;;;;;5038463;28;20492;-61
2024/03/29 07:30:41;;;;;;;5.63;0.90;;;10.40;99.90;;;;;;5034971;28;20105;-62
2024/03/29 07:33:09;;;;;;;1.85;0.40;;;10.40;99.90;;;;;;5037550;28;20033;-61
2024/03/29 07:35:35;;;;;;;1.02;0.38;;;10.40;99.90;;;;;;5036531;28;20093;-61
2024/03/29 07:38:00;;;;;;;1.60;0.63;;;10.40;99.90;;;;;;5036946;28;20452;-61
2024/03/29 07:40:26;;;;;;;1.45;0.52;;;10.30;99.90;;;;;;5033812;28;20484;-61
2024/03/29 07:42:52;;;;;;;1.63;0.90;;;10.40;99.90;;;;;;5034465;28;20041;-61
2024/03/29 07:45:18;;;;;;;2.38;0.80;;;10.30;99.90;;;;;;5038052;28;20087;-61
2024/03/29 07:47:44;;;;;;;1.42;0.43;;;10.30;99.90;;;;;;5036178;28;20131;-61
2024/03/29 07:50:10;;;;;;;1.85;0.70;;;10.30;99.90;;;;;;5036539;28;20072;-61
2024/03/29 07:52:35;;;;;;;1.70;0.63;;;10.30;99.90;;;;;;5070603;28;20170;-61
2024/03/29 07:55:01;;;;;;;1.20;0.70;;;10.40;99.90;;;;;;5038456;28;20518;-61
2024/03/29 07:57:27;;;;;;;1.83;0.47;;;10.40;99.90;;;;;;5036062;28;20045;-61
2024/03/29 07:59:53;;;;;;;2.88;0.60;;;10.50;99.90;;;;;;5039424;28;20044;-61
2024/03/29 08:02:18;;;;;;;1.65;0.50;;;10.40;99.90;;;;;;5036330;28;20651;-61
2024/03/29 08:04:44;;;;;;;2.15;0.75;;;10.40;99.90;;;;;;5040334;28;20052;-61
2024/03/29 08:07:12;;;;;;;5.30;1.15;;;10.30;99.90;;;;;;5036738;28;20049;-61
2024/03/29 08:09:39;;;;;;;2.42;0.98;;;10.20;99.90;;;;;;5038654;28;20044;-61
2024/03/29 08:12:05;;;;;;;2.25;0.50;;;10.20;99.90;;;;;;5038865;28;20537;-61
2024/03/29 08:14:31;;;;;;;1.83;0.80;;;10.20;99.90;;;;;;5038815;28;20148;-60
2024/03/29 08:17:02;;;;;;;3.25;0.60;;;10.10;99.90;;;;;;5036211;28;20060;-62
2024/03/29 08:19:28;;;;;;;1.65;0.55;;;10.10;99.90;;;;;;5036893;28;20049;-61
2024/03/29 08:21:53;;;;;;;2.58;0.77;;;10.20;99.90;;;;;;5038687;28;20072;-61
2024/03/29 08:24:19;;;;;;;2.22;0.73;;;10.20;99.90;;;;;;5038678;28;20048;-61
2024/03/29 08:26:45;;;;;;;3.72;0.70;;;10.20;99.90;;;;;;5038588;28;20044;-61
2024/03/29 08:29:11;;;;;;;2.03;0.65;;;10.10;99.90;;;;;;5036882;28;20037;-61
2024/03/29 08:31:36;;;;;;;3.75;0.70;;;10.10;99.90;;;;;;5034311;28;20411;-61
2024/03/29 08:34:02;;;;;;;1.95;0.60;;;10.10;99.90;;;;;;5036219;28;20060;-62
2024/03/29 08:36:28;;;;;;;1.40;1.05;;;10.00;99.90;;;;;;5037115;28;20526;-61
2024/03/29 08:38:53;;;;;;;1.83;0.88;;;10.00;99.90;;;;;;5037247;28;20040;-61
2024/03/29 08:41:19;;;;;;;1.40;0.70;;;10.00;99.90;;;;;;5034677;28;20083;-61
2024/03/29 08:43:45;;;;;;;1.75;0.52;;;10.00;99.90;;;;;;5036484;28;20155;-61
2024/03/29 08:46:12;;;;;;;2.85;0.50;;;10.00;99.90;;;;;;5035207;28;20090;-62
2024/03/29 08:48:39;;;;;;;1.75;0.63;;;10.00;99.90;;;;;;5036538;28;20046;-61
2024/03/29 08:51:05;;;;;;;2.58;0.70;;;9.90;99.90;;;;;;5034683;28;20131;-62
2024/03/29 08:53:31;;;;;;;3.40;0.70;;;10.00;99.90;;;;;;5037186;28;20033;-61
2024/03/29 08:55:56;;;;;;;3.53;0.85;;;10.00;99.90;;;;;;5038144;28;20411;-61
2024/03/29 08:58:23;;;;;;;1.95;0.52;;;10.10;99.90;;;;;;5038247;28;20040;-61
2024/03/29 09:00:54;;;;;;;1.23;0.55;;;10.20;99.90;;;;;;5035263;28;20142;-61
2024/03/29 09:03:20;;;;;;;1.55;0.50;;;10.40;99.90;;;;;;5037831;28;20041;-61
2024/03/29 09:05:45;;;;;;;1.33;0.50;;;10.60;99.90;;;;;;5036727;28;20040;-61
2024/03/29 09:08:11;;;;;;;2.05;0.65;;;10.80;99.90;;;;;;5037530;28;20534;-62
2024/03/29 09:10:37;;;;;;;1.55;0.50;;;11.10;99.90;;;;;;5038029;28;20040;-61
2024/03/29 09:13:03;;;;;;;0.73;0.45;;;11.30;99.90;;;;;;5033571;28;20099;-61
2024/03/29 09:15:28;;;;;;;1.40;0.55;;;11.30;99.90;;;;;;5038294;28;20036;-61
2024/03/29 09:17:54;;;;;;;0.73;0.40;;;11.30;99.90;;;;;;5035000;28;20044;-63
2024/03/29 09:20:20;;;;;;;3.22;0.50;;;11.30;99.90;;;;;;5037824;28;20473;-61
2024/03/29 09:22:49;;;;;;;3.92;0.75;;;11.30;99.90;;;;;;5034973;28;20451;-62
2024/03/29 09:25:15;;;;;;;1.25;0.63;;;11.40;99.90;;;;;;5037974;28;20041;-62
2024/03/29 09:27:42;;;;;;;1.90;0.60;;;11.50;99.90;;;;;;5035695;28;20047;-62
2024/03/29 09:30:12;;;;;;;1.67;0.77;;;11.40;99.90;;;;;;5035021;28;20237;-62
2024/03/29 09:32:38;;;;;;;1.90;0.60;;;11.50;99.90;;;;;;5036657;28;20033;-62
2024/03/29 09:35:04;;;;;;;0.95;0.60;;;11.60;99.90;;;;;;5034724;28;20060;-64
2024/03/29 09:37:29;;;;;;;1.65;0.77;;;11.60;99.90;;;;;;5041104;28;20041;-62
2024/03/29 09:39:55;;;;;;;1.60;0.90;;;11.60;99.90;;;;;;5040657;28;20530;-62
2024/03/29 09:42:24;;;;;;;1.73;0.60;;;11.60;99.90;;;;;;5040986;28;20100;-62
2024/03/29 09:44:51;;;;;;;2.30;0.57;;;11.50;99.90;;;;;;5040098;28;20660;-62
2024/03/29 09:47:18;;;;;;;3.15;0.60;;;11.40;99.90;;;;;;5041276;28;20084;-60
2024/03/29 09:49:47;;;;;;;0.85;0.68;;;11.50;99.90;;;;;;5040830;28;20039;-61
2024/03/29 09:52:14;;;;;;;2.10;0.80;;;11.30;99.90;;;;;;5040105;28;20565;-61
2024/03/29 09:54:40;;;;;;;1.45;0.65;;;11.30;99.90;;;;;;5039078;28;20416;-62
2024/03/29 09:57:06;;;;;;;1.08;0.60;;;11.50;99.90;;;;;;5041741;28;20051;-62
2024/03/29 09:59:31;;;;;;;2.35;0.50;;;11.50;99.90;;;;;;5040754;28;20049;-62
2024/03/29 10:01:59;;;;;;;2.03;1.00;;;11.80;99.90;;;;;;5038419;28;20041;-62
2024/03/29 10:04:26;;;;;;;1.52;0.75;;;12.00;99.90;;;;;;5041933;28;20134;-63
2024/03/29 10:06:53;;;;;;;1.85;0.55;;;11.90;99.90;;;;;;5040254;28;20040;-62
2024/03/29 10:09:20;;;;;;;2.95;1.00;;;12.00;99.90;;;;;;5039998;28;20279;-61
2024/03/29 10:11:47;;;;;;;2.10;0.60;;;12.10;99.90;;;;;;5041431;28;20040;-62
2024/03/29 10:14:13;;;;;;;2.53;0.90;;;12.10;99.90;;;;;;5039688;28;20041;-62
2024/03/29 10:16:39;;;;;;;1.42;0.50;;;12.00;99.90;;;;;;5039318;28;20122;-62
2024/03/29 10:19:06;;;;;;;0.75;0.60;;;12.20;99.90;;;;;;5041093;28;20045;-62
2024/03/29 10:21:33;;;;;;;0.90;0.43;;;12.20;99.90;;;;;;5040254;28;20053;-62
2024/03/29 10:23:59;;;;;;;1.35;0.75;;;12.20;99.90;;;;;;5040320;28;20503;-62
2024/03/29 10:26:25;;;;;;;1.63;0.40;;;12.50;99.90;;;;;;5040965;28;20083;-61
2024/03/29 10:28:51;;;;;;;1.55;0.50;;;12.90;99.90;;;;;;5037523;28;20037;-61
2024/03/29 10:31:19;;;;;;;1.67;0.85;;;12.80;99.90;;;;;;5037340;28;20431;-61
2024/03/29 10:33:44;;;;;;;2.08;0.80;;;12.70;99.90;;;;;;5038395;28;20045;-61
2024/03/29 10:36:12;;;;;;;0.40;0.40;;;12.70;99.90;;;;;;5036586;28;20988;-60
2024/03/29 10:38:38;;;;;;;0.80;0.40;;;12.60;99.90;;;;;;5035326;28;20045;-61
2024/03/29 10:41:08;;;;;;;1.75;0.60;;;12.60;99.90;;;;;;5038053;28;20052;-61
2024/03/29 10:43:34;;;;;;;1.33;0.50;;;12.70;99.90;;;;;;5037648;28;20094;-61
2024/03/29 10:46:01;;;;;;;2.40;0.47;;;12.80;99.90;;;;;;5035763;28;20033;-61
2024/03/29 10:48:28;;;;;;;1.13;0.40;;;13.00;99.90;;;;;;5038857;28;20500;-61
2024/03/29 10:50:58;;;;;;;0.70;0.38;;;13.00;99.90;;;;;;5038132;28;20075;-61
2024/03/29 10:53:26;;;;;;;1.48;0.52;;;12.90;99.90;;;;;;5038911;28;20070;-62
2024/03/29 10:55:56;;;;;;;1.05;0.47;;;12.90;99.90;;;;;;5038869;28;20037;-61
2024/03/29 10:58:25;;;;;;;0.60;0.40;;;12.90;99.90;;;;;;5039629;28;20033;-61
2024/03/29 11:00:56;;;;;;;1.13;0.50;;;13.10;99.90;;;;;;5037759;28;20508;-60
2024/03/29 11:03:34;;;;;;;1.65;0.40;;;13.30;99.90;;;;;;5037054;28;20067;-61
2024/03/29 11:06:05;;;;;;;0.98;0.50;;;13.40;99.90;;;;;;5039804;28;20047;-61
2024/03/29 11:08:38;;;;;;;0.88;0.35;;;13.40;99.90;;;;;;5038347;28;20033;-61
2024/03/29 11:11:05;;;;;;;1.48;0.50;;;13.30;99.90;;;;;;5038047;28;20061;-61
2024/03/29 11:13:37;;;;;;;1.45;0.60;;;13.30;99.90;;;;;;5038677;28;20448;-61
2024/03/29 11:16:04;;;;;;;3.00;0.70;;;13.30;99.90;;;;;;5038775;28;20047;-61
2024/03/29 11:18:30;;;;;;;0.45;0.30;;;13.10;99.90;;;;;;5037570;28;20041;-61
2024/03/29 11:20:58;;;;;;;1.77;0.45;;;13.00;99.90;;;;;;5040683;28;20621;-62
2024/03/29 11:23:26;;;;;;;0.95;0.40;;;12.90;99.90;;;;;;5036334;28;20120;-62
2024/03/29 11:25:57;;;;;;;1.80;0.40;;;13.00;99.90;;;;;;5032786;28;20037;-61
2024/03/29 11:28:26;;;;;;;2.22;0.57;;;13.10;99.90;;;;;;5040094;28;20041;-62
2024/03/29 11:30:53;;;;;;;1.48;0.70;;;13.10;99.90;;;;;;5036344;28;20123;-62
2024/03/29 11:33:46;;;;;;;1.10;0.75;;;12.90;99.90;;;;;;5035770;28;20032;-61
2024/03/29 11:36:16;;;;;;;2.13;0.70;;;12.90;99.90;;;;;;5033136;28;20096;-61
2024/03/29 11:38:43;;;;;;;2.13;0.47;;;12.90;99.90;;;;;;5037138;28;20130;-61
2024/03/29 11:41:19;;;;;;;1.65;0.65;;;12.90;99.90;;;;;;5037932;28;20051;-61
2024/03/29 11:43:45;;;;;;;1.40;0.52;;;13.00;99.90;;;;;;5033301;28;20348;-61
2024/03/29 11:46:12;;;;;;;1.45;0.52;;;13.40;99.90;;;;;;5037290;28;20139;-62
2024/03/29 11:48:39;;;;;;;1.27;0.80;;;13.80;99.90;;;;;;5038384;28;20067;-62
2024/03/29 11:51:06;;;;;;;2.47;0.80;;;13.90;99.90;;;;;;5038051;28;20595;-62
2024/03/29 11:53:32;;;;;;;4.32;1.08;;;14.10;99.90;;;;;;5038249;28;20047;-62
2024/03/29 11:56:00;;;;;;;1.40;0.60;;;14.30;99.90;;;;;;5035750;28;20073;-62
2024/03/29 11:58:28;;;;;;;5.18;0.82;;;14.70;99.90;;;;;;5037122;28;20033;-62
2024/03/29 12:00:56;;;;;;;2.88;0.80;;;14.90;99.90;;;;;;5037071;28;20044;-62
2024/03/29 12:03:23;;;;;;;4.43;0.88;;;15.10;99.90;;;;;;5036698;28;20128;-62
2024/03/29 12:05:51;;;;;;;4.25;0.98;;;15.30;99.90;;;;;;5036521;28;20037;-62
2024/03/29 12:08:17;;;;;;;3.33;1.57;;;15.30;99.90;;;;;;5034303;28;20037;-62
2024/03/29 12:10:44;;;;;;;2.42;0.90;;;15.20;99.90;;;;;;5036960;28;20045;-62
2024/03/29 12:13:10;;;;;;;2.92;1.15;;;14.90;99.90;;;;;;5038313;28;20504;-63
2024/03/29 12:15:36;;;;;;;2.03;0.90;;;14.90;99.90;;;;;;5037528;28;20051;-62
2024/03/29 12:18:05;;;;;;;4.45;1.20;;;14.90;99.90;;;;;;5037668;28;20126;-62
2024/03/29 12:20:38;;;;;;;3.90;1.45;;;15.00;99.90;;;;;;5037385;28;20126;-62
2024/03/29 12:23:10;;;;;;;3.03;0.75;;;15.20;99.90;;;;;;5037434;28;20037;-62
2024/03/29 12:25:37;;;;;;;1.65;0.90;;;15.20;99.90;;;;;;5036029;28;20052;-62
2024/03/29 12:28:04;;;;;;;0.98;0.68;;;15.20;99.90;;;;;;5038232;28;20458;-62
2024/03/29 12:30:30;;;;;;;3.45;1.73;;;15.40;99.90;;;;;;5034409;28;20099;-62
2024/03/29 12:33:16;;;;;;;2.47;1.00;;;15.10;99.90;;;;;;5035539;28;20167;-62
2024/03/29 12:35:49;;;;;;;3.30;0.90;;;15.30;99.90;;;;;;5035468;28;20411;-62
2024/03/29 12:38:17;;;;;;;3.42;1.05;;;15.20;99.90;;;;;;5037411;28;20033;-62
2024/03/29 12:40:48;;;;;;;4.68;1.13;;;15.10;99.90;;;;;;5034154;28;20041;-62
2024/03/29 12:43:17;;;;;;;1.77;0.85;;;15.10;99.90;;;;;;5039598;28;20044;-61
2024/03/29 12:45:43;;;;;;;3.55;0.93;;;15.10;99.90;;;;;;5034498;28;20400;-60
2024/03/29 12:48:26;;;;;;;2.53;1.30;;;15.10;99.90;;;;;;5037686;28;20086;-60
2024/03/29 12:50:55;;;;;;;3.97;1.20;;;15.00;99.90;;;;;;5035849;28;20507;-62
2024/03/29 12:53:21;;;;;;;2.47;1.15;;;14.70;99.90;;;;;;5034973;28;20060;-60
2024/03/29 12:55:48;;;;;;;1.95;0.95;;;14.70;99.90;;;;;;5037856;28;20452;-61
2024/03/29 12:58:16;;;;;;;2.63;0.80;;;14.90;99.90;;;;;;5038480;28;20084;-60